createdAt,value
2022-11-06T00:00:31.511Z,9.71
2022-11-06T00:03:01.625Z,9.72
2022-11-06T00:05:48.528Z,9.71
2022-11-06T00:08:25.677Z,9.67
2022-11-06T00:10:53.116Z,9.63
2022-11-06T00:13:20.596Z,9.64
2022-11-06T00:15:47.762Z,9.60
2022-11-06T00:18:15.558Z,9.57
2022-11-06T00:20:43.053Z,9.63
2022-11-06T00:23:10.617Z,9.52
2022-11-06T00:25:41.318Z,9.59
2022-11-06T00:28:09.561Z,9.57
2022-11-06T00:30:37.512Z,9.62
2022-11-06T00:33:05.018Z,9.65
2022-11-06T00:35:32.172Z,9.62
2022-11-06T00:37:59.701Z,9.57
2022-11-06T00:40:26.840Z,9.63
2022-11-06T00:42:55.838Z,9.68
2022-11-06T00:45:24.794Z,9.73
2022-11-06T00:47:52.606Z,9.71
2022-11-06T00:50:19.876Z,9.73
2022-11-06T00:52:47.342Z,9.73
2022-11-06T00:55:14.706Z,9.77
2022-11-06T00:57:42.192Z,9.75
2022-11-06T01:00:11.322Z,9.70
2022-11-06T01:02:39.316Z,9.72
2022-11-06T01:05:07.088Z,9.73
2022-11-06T01:07:34.540Z,9.65
2022-11-06T01:10:01.787Z,9.70
2022-11-06T01:12:33.038Z,9.67
2022-11-06T01:15:00.370Z,9.65
2022-11-06T01:17:29.020Z,9.62
2022-11-06T01:19:56.156Z,9.65
2022-11-06T01:22:23.645Z,9.65
2022-11-06T01:24:51.079Z,9.65
2022-11-06T01:27:27.372Z,9.61
2022-11-06T01:29:55.749Z,9.60
2022-11-06T01:32:23.219Z,9.59
2022-11-06T01:34:51.962Z,9.56
2022-11-06T01:37:19.513Z,9.52
2022-11-06T01:39:48.589Z,9.45
2022-11-06T01:42:19.250Z,9.48
2022-11-06T01:45:08.052Z,9.33
2022-11-06T01:47:35.618Z,9.42
2022-11-06T01:50:09.571Z,9.47
2022-11-06T01:52:37.693Z,9.48
2022-11-06T01:55:19.670Z,9.45
2022-11-06T01:57:48.587Z,9.46
2022-11-06T02:00:16.340Z,9.45
2022-11-06T02:02:44.223Z,9.46
2022-11-06T02:05:11.724Z,9.44
2022-11-06T02:07:41.712Z,9.46
2022-11-06T02:10:09.698Z,9.43
2022-11-06T02:12:54.768Z,9.38
2022-11-06T02:15:43.172Z,9.37
2022-11-06T02:18:16.859Z,9.33
2022-11-06T02:21:19.727Z,9.32
2022-11-06T02:24:31.379Z,9.27
2022-11-06T02:27:33.887Z,9.28
2022-11-06T02:30:13.815Z,9.16
2022-11-06T02:32:59.728Z,9.17
2022-11-06T02:35:34.943Z,9.21
2022-11-06T02:38:16.914Z,9.22
2022-11-06T02:40:58.109Z,9.17
2022-11-06T02:43:55.654Z,9.17
2022-11-06T02:46:46.717Z,9.17
2022-11-06T02:49:29.599Z,9.08
2022-11-06T02:52:06.821Z,9.15
2022-11-06T02:54:41.235Z,9.21
2022-11-06T02:57:15.711Z,9.17
2022-11-06T03:00:02.803Z,9.17
2022-11-06T03:02:56.192Z,9.14
2022-11-06T03:06:03.984Z,9.16
2022-11-06T03:08:43.185Z,9.16
2022-11-06T03:11:22.689Z,9.16
2022-11-06T03:13:53.074Z,9.21
2022-11-06T03:16:42.716Z,9.17
2022-11-06T03:19:45.607Z,9.13
2022-11-06T03:22:41.975Z,9.03
2022-11-06T03:25:42.085Z,8.97
2022-11-06T03:28:20.588Z,8.95
2022-11-06T03:30:58.702Z,8.89
2022-11-06T03:33:50.899Z,8.85
2022-11-06T03:36:25.410Z,8.80
2022-11-06T03:39:05.471Z,8.75
2022-11-06T03:41:48.214Z,8.65
2022-11-06T03:44:22.767Z,8.62
2022-11-06T03:47:01.852Z,8.58
2022-11-06T03:49:42.249Z,8.51
2022-11-06T03:52:18.367Z,8.43
2022-11-06T03:55:01.710Z,8.34
2022-11-06T03:57:47.949Z,8.27
2022-11-06T04:00:17.200Z,8.29
2022-11-06T04:02:53.086Z,8.15
2022-11-06T04:05:24.719Z,8.10
2022-11-06T04:08:15.240Z,8.04
2022-11-06T04:11:08.933Z,7.94
2022-11-06T04:13:58.197Z,7.93
2022-11-06T04:16:40.076Z,7.81
2022-11-06T04:19:18.926Z,7.84
2022-11-06T04:22:13.687Z,7.92
2022-11-06T04:25:52.959Z,7.82
2022-11-06T04:28:33.746Z,7.91
2022-11-06T04:31:23.777Z,7.94
2022-11-06T04:34:04.755Z,7.98
2022-11-06T04:36:47.516Z,8.02
2022-11-06T04:40:28.438Z,8.07
2022-11-06T04:43:30.267Z,7.97
2022-11-06T04:46:01.010Z,7.98
2022-11-06T04:48:30.473Z,7.98
2022-11-06T04:51:06.194Z,8.00
2022-11-06T04:53:35.389Z,7.94
2022-11-06T04:56:11.742Z,7.96
2022-11-06T04:58:39.740Z,7.94
2022-11-06T05:01:07.328Z,7.98
2022-11-06T05:03:34.950Z,8.00
2022-11-06T05:06:03.317Z,8.00
2022-11-06T05:08:30.930Z,8.03
2022-11-06T05:10:58.084Z,8.09
2022-11-06T05:13:25.534Z,8.14
2022-11-06T05:15:57.909Z,8.06
2022-11-06T05:18:27.521Z,8.01
2022-11-06T05:21:15.017Z,7.95
2022-11-06T05:23:43.023Z,7.90
2022-11-06T05:26:10.308Z,7.92
2022-11-06T05:28:37.810Z,7.92
2022-11-06T05:31:05.835Z,7.93
2022-11-06T05:33:33.470Z,7.85
2022-11-06T05:36:05.924Z,7.77
2022-11-06T05:38:34.064Z,7.77
2022-11-06T05:41:01.327Z,7.74
2022-11-06T05:43:29.046Z,7.69
2022-11-06T05:45:56.323Z,7.74
2022-11-06T05:48:23.848Z,7.84
2022-11-06T05:50:51.075Z,7.80
2022-11-06T05:53:19.213Z,7.80
2022-11-06T05:55:47.341Z,7.82
2022-11-06T05:58:15.536Z,7.82
2022-11-06T06:00:42.974Z,7.78
2022-11-06T06:03:11.286Z,7.69
2022-11-06T06:05:38.575Z,7.80
2022-11-06T06:08:06.836Z,7.83
2022-11-06T06:10:34.097Z,7.89
2022-11-06T06:13:01.565Z,7.94
2022-11-06T06:15:28.786Z,8.08
2022-11-06T06:17:58.053Z,8.14
2022-11-06T06:20:25.645Z,8.29
2022-11-06T06:22:58.078Z,8.40
2022-11-06T06:25:26.701Z,8.56
2022-11-06T06:27:55.152Z,8.68
2022-11-06T06:30:23.484Z,8.82
2022-11-06T06:32:51.935Z,8.93
2022-11-06T06:35:19.283Z,8.97
2022-11-06T06:37:54.613Z,8.92
2022-11-06T06:40:23.227Z,8.92
2022-11-06T06:42:50.724Z,8.88
2022-11-06T06:45:17.966Z,8.90
2022-11-06T06:47:45.414Z,9.01
2022-11-06T06:50:12.714Z,9.08
2022-11-06T06:52:40.122Z,9.07
2022-11-06T06:55:07.736Z,8.96
2022-11-06T06:57:35.210Z,8.95
2022-11-06T07:00:02.478Z,8.94
2022-11-06T07:02:30.063Z,8.87
2022-11-06T07:04:57.377Z,8.85
2022-11-06T07:07:24.871Z,8.91
2022-11-06T07:09:52.420Z,8.98
2022-11-06T07:12:19.941Z,9.14
2022-11-06T07:14:47.085Z,9.25
2022-11-06T07:17:14.645Z,9.35
2022-11-06T07:19:41.808Z,9.37
2022-11-06T07:22:09.291Z,9.58
2022-11-06T07:24:36.460Z,9.75
2022-11-06T07:27:04.021Z,9.92
2022-11-06T07:29:31.252Z,10.10
2022-11-06T07:31:58.772Z,10.17
2022-11-06T07:34:25.913Z,10.46
2022-11-06T07:36:53.435Z,10.73
2022-11-06T07:39:20.592Z,11.12
2022-11-06T07:41:48.024Z,11.61
2022-11-06T07:44:15.215Z,12.10
2022-11-06T07:46:43.880Z,12.65
2022-11-06T07:49:11.229Z,12.98
2022-11-06T07:51:39.174Z,13.49
2022-11-06T07:54:06.328Z,13.82
2022-11-06T07:56:34.137Z,14.06
2022-11-06T07:59:01.408Z,14.34
2022-11-06T08:01:28.982Z,14.69
2022-11-06T08:03:56.233Z,15.08
2022-11-06T08:06:23.671Z,14.76
2022-11-06T08:08:53.765Z,14.64
2022-11-06T08:11:25.271Z,14.84
2022-11-06T08:13:52.416Z,15.16
2022-11-06T08:16:19.912Z,15.43
2022-11-06T08:18:47.046Z,15.64
2022-11-06T08:21:14.543Z,15.85
2022-11-06T08:23:41.692Z,16.25
2022-11-06T08:26:10.657Z,17.00
2022-11-06T08:28:38.080Z,17.54
2022-11-06T08:31:07.603Z,18.22
2022-11-06T08:33:38.655Z,18.59
2022-11-06T08:36:09.261Z,19.39
2022-11-06T08:38:36.962Z,19.84
2022-11-06T08:41:11.334Z,20.82
2022-11-06T08:43:39.711Z,21.19
2022-11-06T08:46:09.607Z,20.79
2022-11-06T08:48:37.433Z,20.90
2022-11-06T08:51:06.414Z,22.22
2022-11-06T08:53:34.595Z,24.83
2022-11-06T08:56:05.814Z,27.28
2022-11-06T08:58:33.260Z,28.89
2022-11-06T09:01:00.758Z,30.21
2022-11-06T09:03:27.976Z,31.17
2022-11-06T09:05:55.507Z,32.12
2022-11-06T09:08:24.226Z,32.82
2022-11-06T09:10:57.261Z,34.02
2022-11-06T09:13:26.411Z,35.18
2022-11-06T09:15:53.944Z,35.82
2022-11-06T09:18:21.120Z,36.82
2022-11-06T09:20:48.668Z,38.20
2022-11-06T09:23:17.300Z,38.80
2022-11-06T09:25:44.886Z,38.79
2022-11-06T09:28:12.062Z,38.58
2022-11-06T09:30:39.626Z,38.88
2022-11-06T09:33:12.216Z,40.31
2022-11-06T09:35:41.746Z,40.39
2022-11-06T09:38:12.905Z,40.95
2022-11-06T09:40:53.700Z,40.07
2022-11-06T09:46:44.494Z,39.00
2022-11-06T09:49:22.951Z,38.58
2022-11-06T09:52:11.083Z,38.34
2022-11-06T09:54:56.271Z,38.69
2022-11-06T09:57:37.983Z,38.34
2022-11-06T10:00:11.667Z,39.09
2022-11-06T10:02:57.908Z,40.06
2022-11-06T10:05:38.305Z,41.50
2022-11-06T10:08:27.142Z,43.16
2022-11-06T10:11:15.645Z,43.05
2022-11-06T10:14:07.360Z,42.92
2022-11-06T10:17:01.619Z,43.50
2022-11-06T10:20:10.943Z,43.20
2022-11-06T10:23:03.433Z,43.16
2022-11-06T10:26:13.994Z,44.47
2022-11-06T10:29:34.046Z,45.32
2022-11-06T10:32:38.609Z,44.16
2022-11-06T10:35:30.705Z,41.48
2022-11-06T10:38:13.985Z,38.32
2022-11-06T10:40:49.021Z,39.04
2022-11-06T10:43:25.095Z,39.64
2022-11-06T10:46:19.045Z,37.91
2022-11-06T10:49:21.027Z,33.93
2022-11-06T10:52:26.417Z,31.76
2022-11-06T10:55:36.934Z,30.13
2022-11-06T10:58:12.060Z,28.87
2022-11-06T11:00:40.339Z,27.96
2022-11-06T11:03:32.938Z,27.53
2022-11-06T11:06:01.854Z,26.78
2022-11-06T11:08:36.194Z,26.08
2022-11-06T11:11:05.235Z,26.88
2022-11-06T11:13:33.493Z,30.23
2022-11-06T11:16:03.485Z,29.42
2022-11-06T11:18:34.503Z,29.48
2022-11-06T11:21:18.840Z,27.94
2022-11-06T11:24:01.414Z,28.18
2022-11-06T11:26:32.943Z,27.10
2022-11-06T11:29:16.291Z,26.28
2022-11-06T11:31:51.858Z,25.88
2022-11-06T11:34:27.587Z,24.95
2022-11-06T11:37:06.075Z,24.38
2022-11-06T11:39:44.087Z,24.42
2022-11-06T11:42:32.652Z,25.35
2022-11-06T11:45:09.019Z,24.58
2022-11-06T11:47:42.690Z,24.27
2022-11-06T11:50:31.651Z,23.88
2022-11-06T11:53:05.751Z,23.41
2022-11-06T11:55:43.495Z,22.81
2022-11-06T11:58:28.150Z,22.32
2022-11-06T12:01:04.472Z,21.72
2022-11-06T12:03:42.132Z,21.33
2022-11-06T12:06:18.645Z,21.09
2022-11-06T12:08:54.175Z,21.15
2022-11-06T12:11:27.329Z,21.15
2022-11-06T12:14:37.413Z,21.01
2022-11-06T12:17:21.082Z,20.94
2022-11-06T12:19:58.231Z,20.52
2022-11-06T12:22:37.985Z,20.21
2022-11-06T12:25:39.700Z,19.93
2022-11-06T12:28:19.135Z,20.00
2022-11-06T12:30:57.481Z,19.83
2022-11-06T12:34:04.067Z,19.61
2022-11-06T12:36:22.495Z,19.52
2022-11-06T12:39:04.180Z,19.40
2022-11-06T12:41:40.970Z,18.78
2022-11-06T12:44:16.214Z,18.74
2022-11-06T12:47:26.585Z,18.37
2022-11-06T12:50:12.250Z,18.00
2022-11-06T12:53:09.094Z,17.83
2022-11-06T12:55:56.747Z,17.28
2022-11-06T12:58:56.368Z,16.88
2022-11-06T13:01:57.308Z,16.88
2022-11-06T13:05:11.593Z,16.84
2022-11-06T13:08:16.516Z,16.63
2022-11-06T13:10:56.334Z,16.45
2022-11-06T13:14:12.310Z,16.13
2022-11-06T13:17:09.488Z,15.99
2022-11-06T13:19:55.211Z,15.95
2022-11-06T13:22:29.897Z,15.70
2022-11-06T13:25:52.933Z,15.68
2022-11-06T13:28:42.883Z,15.61
2022-11-06T13:31:16.665Z,15.70
2022-11-06T13:33:59.767Z,15.75
2022-11-06T13:36:29.964Z,15.67
2022-11-06T13:39:15.772Z,15.48
2022-11-06T13:41:42.938Z,15.58
2022-11-06T13:44:18.601Z,15.72
2022-11-06T13:47:21.644Z,15.60
2022-11-06T13:50:03.903Z,15.74
2022-11-06T13:52:52.017Z,15.77
2022-11-06T13:56:04.368Z,18.37
2022-11-06T13:59:09.712Z,21.83
2022-11-06T14:02:09.771Z,24.02
2022-11-06T14:05:00.989Z,25.71
2022-11-06T14:07:32.565Z,27.24
2022-11-06T14:10:00.337Z,27.66
2022-11-06T14:12:28.610Z,27.95
2022-11-06T14:15:24.765Z,28.15
2022-11-06T14:18:01.993Z,28.03
2022-11-06T14:20:39.332Z,27.25
2022-11-06T14:23:31.499Z,26.00
2022-11-06T14:26:12.468Z,25.37
2022-11-06T14:28:44.637Z,24.86
2022-11-06T14:31:50.222Z,24.40
2022-11-06T14:34:38.721Z,23.65
2022-11-06T14:37:31.189Z,22.33
2022-11-06T14:39:58.844Z,21.37
2022-11-06T14:42:34.473Z,20.82
2022-11-06T14:45:11.979Z,20.08
2022-11-06T14:48:00.181Z,19.88
2022-11-06T14:50:41.043Z,19.44
2022-11-06T14:53:23.381Z,18.66
2022-11-06T14:56:09.741Z,18.07
2022-11-06T14:58:47.126Z,17.49
2022-11-06T15:01:24.734Z,16.96
2022-11-06T15:03:57.960Z,16.15
2022-11-06T15:06:34.168Z,15.54
2022-11-06T15:09:14.145Z,15.12
2022-11-06T15:11:47.720Z,14.79
2022-11-06T15:14:15.231Z,14.50
2022-11-06T15:16:45.434Z,14.07
2022-11-06T15:19:26.613Z,13.79
2022-11-06T15:22:21.000Z,13.47
2022-11-06T15:24:55.721Z,13.37
2022-11-06T15:27:30.698Z,13.24
2022-11-06T15:30:03.913Z,13.14
2022-11-06T15:32:38.349Z,12.99
2022-11-06T15:35:16.080Z,12.83
2022-11-06T15:37:56.561Z,12.55
2022-11-06T15:40:38.401Z,12.39
2022-11-06T15:43:25.684Z,12.14
2022-11-06T15:46:11.267Z,12.08
2022-11-06T15:48:39.422Z,11.91
2022-11-06T15:51:40.413Z,11.65
2022-11-06T15:54:14.620Z,11.57
2022-11-06T15:56:42.522Z,11.47
2022-11-06T15:59:17.129Z,11.41
2022-11-06T16:01:49.546Z,11.18
2022-11-06T16:04:25.297Z,11.12
2022-11-06T16:06:55.237Z,11.01
2022-11-06T16:09:26.796Z,10.87
2022-11-06T16:11:55.641Z,10.84
2022-11-06T16:14:23.597Z,10.68
2022-11-06T16:16:54.509Z,10.79
2022-11-06T16:19:36.928Z,10.59
2022-11-06T16:22:10.119Z,10.46
2022-11-06T16:24:53.571Z,10.56
2022-11-06T16:27:23.605Z,10.32
2022-11-06T16:30:03.457Z,10.32
2022-11-06T16:32:39.967Z,10.18
2022-11-06T16:35:32.134Z,10.27
2022-11-06T16:38:41.978Z,10.33
2022-11-06T16:41:37.356Z,10.19
2022-11-06T16:44:44.005Z,9.96
2022-11-06T16:47:12.901Z,9.98
2022-11-06T16:49:53.871Z,9.91
2022-11-06T16:52:33.049Z,9.95
2022-11-06T16:55:17.043Z,9.91
2022-11-06T16:57:55.287Z,9.86
2022-11-06T17:00:33.476Z,9.81
2022-11-06T17:03:20.103Z,9.73
2022-11-06T17:06:23.676Z,9.63
2022-11-06T17:09:21.675Z,9.72
2022-11-06T17:11:58.115Z,9.51
2022-11-06T17:14:27.395Z,9.47
2022-11-06T17:17:01.289Z,9.46
2022-11-06T17:19:30.263Z,9.48
2022-11-06T17:21:58.242Z,9.46
2022-11-06T17:24:41.503Z,9.41
2022-11-06T17:27:08.929Z,9.38
2022-11-06T17:29:36.734Z,9.41
2022-11-06T17:32:04.334Z,9.39
2022-11-06T17:34:31.793Z,9.30
2022-11-06T17:36:59.107Z,9.24
2022-11-06T17:39:26.907Z,9.22
2022-11-06T17:41:54.616Z,9.21
2022-11-06T17:44:22.500Z,9.23
2022-11-06T17:46:50.009Z,9.20
2022-11-06T17:49:18.625Z,9.27
2022-11-06T17:51:53.660Z,9.27
2022-11-06T17:54:26.310Z,9.17
2022-11-06T17:56:55.951Z,9.22
2022-11-06T17:59:26.580Z,9.16
2022-11-06T18:01:55.357Z,9.10
2022-11-06T18:04:26.590Z,9.11
2022-11-06T18:06:55.031Z,9.13
2022-11-06T18:09:24.216Z,8.97
2022-11-06T18:11:54.363Z,8.94
2022-11-06T18:14:24.758Z,8.94
2022-11-06T18:16:53.140Z,8.89
2022-11-06T18:19:24.651Z,8.82
2022-11-06T18:21:52.441Z,8.73
2022-11-06T18:24:20.212Z,8.64
2022-11-06T18:26:47.570Z,8.69
2022-11-06T18:29:15.574Z,8.73
2022-11-06T18:31:43.049Z,8.78
2022-11-06T18:34:19.778Z,8.67
2022-11-06T18:36:50.656Z,8.80
2022-11-06T18:39:19.347Z,8.76
2022-11-06T18:41:46.762Z,8.82
2022-11-06T18:44:17.188Z,8.76
2022-11-06T18:46:46.597Z,8.90
2022-11-06T18:49:15.062Z,8.75
2022-11-06T18:51:42.421Z,8.78
2022-11-06T18:54:12.181Z,8.75
2022-11-06T18:56:39.731Z,8.82
2022-11-06T18:59:14.066Z,8.82
2022-11-06T19:01:41.430Z,8.85
2022-11-06T19:04:10.915Z,8.95
2022-11-06T19:06:40.245Z,9.04
2022-11-06T19:09:09.700Z,9.08
2022-11-06T19:11:37.264Z,9.11
2022-11-06T19:14:05.105Z,9.26
2022-11-06T19:16:32.307Z,9.36
2022-11-06T19:19:05.834Z,9.51
2022-11-06T19:21:34.064Z,9.33
2022-11-06T19:24:05.661Z,9.50
2022-11-06T19:26:37.666Z,9.46
2022-11-06T19:29:08.641Z,9.54
2022-11-06T19:31:37.793Z,9.42
2022-11-06T19:34:08.270Z,9.57
2022-11-06T19:36:36.032Z,9.38
2022-11-06T19:39:04.695Z,9.35
2022-11-06T19:41:31.906Z,9.47
2022-11-06T19:43:59.697Z,9.47
2022-11-06T19:46:32.379Z,9.57
2022-11-06T19:49:07.518Z,9.55
2022-11-06T19:51:37.642Z,9.51
2022-11-06T19:54:10.055Z,9.55
2022-11-06T19:57:27.012Z,9.56
2022-11-06T19:59:25.802Z,9.48
2022-11-06T20:01:53.294Z,9.51
2022-11-06T20:04:20.978Z,9.50
2022-11-06T20:06:48.248Z,9.41
2022-11-06T20:09:15.865Z,9.44
2022-11-06T20:11:43.195Z,9.52
2022-11-06T20:14:10.688Z,9.57
2022-11-06T20:16:38.100Z,9.46
2022-11-06T20:19:05.681Z,9.57
2022-11-06T20:21:33.131Z,9.52
2022-11-06T20:24:00.828Z,9.61
2022-11-06T20:26:28.216Z,9.66
2022-11-06T20:28:55.676Z,9.70
2022-11-06T20:31:23.473Z,9.67
2022-11-06T20:33:52.249Z,9.59
2022-11-06T20:36:26.638Z,9.71
2022-11-06T20:38:58.846Z,9.78
2022-11-06T20:41:28.019Z,9.79
2022-11-06T20:43:56.490Z,9.86
2022-11-06T20:46:25.208Z,9.81
2022-11-06T20:48:53.266Z,9.81
2022-11-06T20:51:29.398Z,9.86
2022-11-06T20:53:56.921Z,9.90
2022-11-06T20:56:27.352Z,9.92
2022-11-06T20:58:56.790Z,9.95
2022-11-06T21:01:27.303Z,9.93
2022-11-06T21:03:57.501Z,10.03
2022-11-06T21:06:27.665Z,10.07
2022-11-06T21:08:56.397Z,10.13
2022-11-06T21:11:27.341Z,10.10
2022-11-06T21:13:55.644Z,10.05
2022-11-06T21:16:34.827Z,10.10
2022-11-06T21:19:04.271Z,10.11
2022-11-06T21:21:35.064Z,10.14
2022-11-06T21:24:04.777Z,10.15
2022-11-06T21:26:37.025Z,10.10
2022-11-06T21:29:08.735Z,10.12
2022-11-06T21:31:36.544Z,10.16
2022-11-06T21:34:05.676Z,10.22
2022-11-06T21:36:37.692Z,10.25
2022-11-06T21:39:13.944Z,10.31
2022-11-06T21:41:41.870Z,10.26
2022-11-06T21:44:16.104Z,10.29
2022-11-06T21:46:45.681Z,10.26
2022-11-06T21:49:14.372Z,10.20
2022-11-06T21:51:41.707Z,10.29
2022-11-06T21:54:30.689Z,10.30
2022-11-06T21:56:58.080Z,10.30
2022-11-06T21:59:28.855Z,10.24
2022-11-06T22:01:56.503Z,10.27
2022-11-06T22:04:24.281Z,10.24
2022-11-06T22:06:54.900Z,10.22
2022-11-06T22:09:25.597Z,10.12
2022-11-06T22:11:53.531Z,10.14
2022-11-06T22:14:21.000Z,10.16
2022-11-06T22:16:48.594Z,10.20
2022-11-06T22:19:17.835Z,10.06
2022-11-06T22:21:45.407Z,10.12
2022-11-06T22:24:14.784Z,10.08
2022-11-06T22:26:42.639Z,10.08
2022-11-06T22:29:14.123Z,10.10
2022-11-06T22:31:41.680Z,10.06
2022-11-06T22:34:11.529Z,10.03
2022-11-06T22:36:39.621Z,10.03
2022-11-06T22:39:10.037Z,10.03
2022-11-06T22:41:38.269Z,10.11
2022-11-06T22:44:06.680Z,10.10
2022-11-06T22:46:34.291Z,10.14
2022-11-06T22:49:01.966Z,10.10
2022-11-06T22:51:31.502Z,10.10
2022-11-06T22:54:00.676Z,10.13
2022-11-06T22:56:30.330Z,10.07
2022-11-06T22:59:05.276Z,10.03
2022-11-06T23:01:37.461Z,10.02
2022-11-06T23:04:16.287Z,9.84
2022-11-06T23:06:46.518Z,9.80
2022-11-06T23:09:14.736Z,9.77
2022-11-06T23:11:45.611Z,9.68
2022-11-06T23:14:12.862Z,9.70
2022-11-06T23:17:00.420Z,9.67
2022-11-06T23:19:31.676Z,9.64
2022-11-06T23:22:18.049Z,9.55
2022-11-06T23:24:45.968Z,9.51
2022-11-06T23:27:13.615Z,9.54
2022-11-06T23:29:40.836Z,9.50
2022-11-06T23:32:08.384Z,9.48
2022-11-06T23:34:35.713Z,9.54
2022-11-06T23:37:03.137Z,9.49
2022-11-06T23:39:30.404Z,9.46
2022-11-06T23:41:57.881Z,9.41
2022-11-06T23:44:43.290Z,9.35
2022-11-06T23:47:10.746Z,9.45
2022-11-06T23:49:37.996Z,9.27
2022-11-06T23:52:05.566Z,9.37
2022-11-06T23:54:32.794Z,9.36
2022-11-06T23:57:00.240Z,9.33
2022-11-06T23:59:27.492Z,9.43
